Time;durP1;ratioP1;P1;durP2;ratioP2;P2;SDS_P1;SDS_P2;PMS_P1;PMS_P2;Temp;Humidity;BMP_temperature;BMP_pressure;BME280_temperature;BME280_humidity;BME280_pressure;Samples;Min_cycle;Max_cycle;Signal;HPM_P1;HPM_P2
2023/09/16 00:00:06;;;;;;;12.75;11.45;;;;;;;13.42;100.00;101229.97;5011371;28;20117;-64
2023/09/16 00:02:31;;;;;;;12.20;11.00;;;;;;;13.41;100.00;101235.16;5010993;28;20103;-64
2023/09/16 00:04:57;;;;;;;13.10;11.82;;;;;;;13.39;100.00;101227.31;5011160;28;20029;-65
2023/09/16 00:07:23;;;;;;;13.05;11.85;;;;;;;13.39;100.00;101237.72;5010736;28;20125;-65
2023/09/16 00:09:48;;;;;;;13.30;12.00;;;;;;;13.38;100.00;101230.75;5011415;28;20029;-65
2023/09/16 00:12:13;;;;;;;13.48;12.13;;;;;;;13.38;100.00;101240.28;5011249;28;20034;-65
2023/09/16 00:14:38;;;;;;;12.55;11.40;;;;;;;13.37;100.00;101239.38;5010766;28;20030;-64
2023/09/16 00:17:04;;;;;;;12.32;11.07;;;;;;;13.38;100.00;101235.06;5010890;28;20558;-64
2023/09/16 00:19:29;;;;;;;12.35;11.15;;;;;;;13.37;100.00;101239.38;5011200;28;20026;-64
2023/09/16 00:21:55;;;;;;;12.27;11.10;;;;;;;13.37;100.00;101234.19;5010637;28;20026;-65
2023/09/16 00:24:21;;;;;;;12.82;11.63;;;;;;;13.36;100.00;101245.44;5009953;28;20036;-64
2023/09/16 00:26:46;;;;;;;12.15;10.93;;;;;;;13.38;100.00;101253.28;5010612;28;20367;-65
2023/09/16 00:29:11;;;;;;;13.20;11.68;;;;;;;13.36;100.00;101244.56;5010840;28;20385;-64
2023/09/16 00:31:37;;;;;;;12.70;11.40;;;;;;;13.35;100.00;101248.00;5010694;28;20033;-65
2023/09/16 00:34:03;;;;;;;11.90;10.70;;;;;;;13.33;100.00;101247.94;5010298;28;20053;-64
2023/09/16 00:36:28;;;;;;;12.13;10.95;;;;;;;13.31;100.00;101249.66;5010290;28;20028;-64
2023/09/16 00:38:54;;;;;;;10.63;9.65;;;;;;;13.30;100.00;101247.88;5010523;28;20471;-64
2023/09/16 00:41:19;;;;;;;12.20;11.00;;;;;;;13.25;100.00;101241.66;5010409;28;20017;-64
2023/09/16 00:43:45;;;;;;;13.10;11.52;;;;;;;13.23;100.00;101244.22;5009400;28;20057;-65
2023/09/16 00:46:10;;;;;;;14.38;11.68;;;;;;;13.21;100.00;101238.09;5010013;28;20208;-65
2023/09/16 00:48:36;;;;;;;11.48;10.48;;;;;;;13.18;100.00;101240.63;5010322;28;20026;-65
2023/09/16 00:51:02;;;;;;;12.38;10.80;;;;;;;13.13;100.00;101237.88;5010017;28;20057;-65
2023/09/16 00:53:28;;;;;;;11.80;10.52;;;;;;;13.10;100.00;101232.59;5010412;28;20021;-65
2023/09/16 00:55:53;;;;;;;11.90;10.73;;;;;;;13.06;100.00;101233.34;5009915;28;20100;-65
2023/09/16 00:58:19;;;;;;;11.88;10.88;;;;;;;13.03;100.00;101226.34;5009688;28;20032;-65
2023/09/16 01:00:45;;;;;;;12.20;10.98;;;;;;;13.00;100.00;101223.66;5008920;28;20056;-65
2023/09/16 01:03:11;;;;;;;11.48;10.40;;;;;;;12.97;100.00;101214.03;5009579;28;20272;-65
2023/09/16 01:05:37;;;;;;;11.55;10.18;;;;;;;12.96;100.00;101220.09;5009910;28;20508;-65
2023/09/16 01:08:03;;;;;;;10.75;9.75;;;;;;;12.96;100.00;101216.59;5009581;28;20481;-64
2023/09/16 01:10:28;;;;;;;11.43;10.30;;;;;;;12.96;100.00;101217.50;5009542;28;20045;-64
2023/09/16 01:12:55;;;;;;;12.30;10.65;;;;;;;12.94;100.00;101213.06;5009708;28;20478;-65
2023/09/16 01:15:22;;;;;;;11.75;10.55;;;;;;;12.91;100.00;101208.69;5009887;28;20457;-65
2023/09/16 01:18:27;;;;;;;11.70;10.60;;;;;;;12.88;100.00;101211.16;5009581;28;20156;-63
2023/09/16 01:20:55;;;;;;;12.70;10.73;;;;;;;12.85;100.00;101208.47;5008659;28;20038;-64
2023/09/16 01:23:20;;;;;;;11.82;10.70;;;;;;;12.81;100.00;101206.63;5009862;28;20021;-64
2023/09/16 01:25:46;;;;;;;11.90;10.68;;;;;;;12.78;100.00;101211.75;5009582;28;20018;-64
2023/09/16 01:28:11;;;;;;;11.60;10.32;;;;;;;12.76;100.00;101203.91;5009568;28;20033;-64
2023/09/16 01:30:43;;;;;;;11.77;10.57;;;;;;;12.75;100.00;101206.47;5009428;28;20174;-64
2023/09/16 01:33:21;;;;;;;12.68;11.45;;;;;;;12.73;100.00;101209.03;5009095;28;20474;-64
2023/09/16 01:35:48;;;;;;;11.77;10.63;;;;;;;12.70;100.00;101217.59;5009405;28;20070;-64
2023/09/16 01:38:15;;;;;;;13.38;10.65;;;;;;;12.69;100.00;101210.66;5009623;28;20395;-64
2023/09/16 01:40:43;;;;;;;11.80;10.65;;;;;;;12.66;100.00;101215.78;5009327;28;20038;-64
2023/09/16 01:43:09;;;;;;;12.15;10.15;;;;;;;12.64;100.00;101211.34;5008811;28;20032;-64
2023/09/16 01:45:41;;;;;;;12.45;11.20;;;;;;;12.61;100.00;101209.53;5009173;28;20398;-64
2023/09/16 01:48:07;;;;;;;11.55;10.35;;;;;;;12.58;100.00;101199.03;5008834;28;20056;-64
2023/09/16 01:50:32;;;;;;;10.88;9.75;;;;;;;12.56;100.00;101201.59;5009173;28;20057;-64
2023/09/16 01:52:57;;;;;;;11.65;10.55;;;;;;;12.55;100.00;101198.97;5008500;28;20227;-65
2023/09/16 01:55:23;;;;;;;11.80;10.80;;;;;;;12.53;100.00;101201.53;5008400;28;20037;-65
2023/09/16 01:57:49;;;;;;;11.20;10.10;;;;;;;12.54;100.00;101197.22;5008530;28;20021;-64
2023/09/16 02:00:14;;;;;;;10.48;9.48;;;;;;;12.53;100.00;101200.63;5009072;28;20022;-64
2023/09/16 02:02:40;;;;;;;10.65;9.77;;;;;;;12.51;100.00;101194.50;5009242;28;20037;-64
2023/09/16 02:05:06;;;;;;;11.50;10.40;;;;;;;12.47;100.00;101202.22;5008882;28;20026;-65
2023/09/16 02:07:31;;;;;;;11.85;10.18;;;;;;;12.45;100.00;101187.41;5008694;28;20050;-64
2023/09/16 02:09:56;;;;;;;10.60;9.60;;;;;;;12.45;100.00;101192.59;5008550;28;20036;-64
2023/09/16 02:12:22;;;;;;;11.02;9.93;;;;;;;12.45;100.00;101188.28;5009214;28;20489;-64
2023/09/16 02:14:51;;;;;;;10.70;9.75;;;;;;;12.46;100.00;101194.38;5008421;28;20053;-64
2023/09/16 02:17:17;;;;;;;11.68;10.57;;;;;;;12.44;100.00;101199.53;5008783;28;20018;-64
2023/09/16 02:19:42;;;;;;;11.63;9.63;;;;;;;12.44;100.00;101196.94;5008801;28;20398;-64
2023/09/16 02:22:08;;;;;;;10.95;9.95;;;;;;;12.44;100.00;101199.53;5008258;28;20050;-64
2023/09/16 02:24:33;;;;;;;12.35;11.05;;;;;;;12.42;100.00;101198.59;5008798;28;20482;-64
2023/09/16 02:26:59;;;;;;;12.23;11.07;;;;;;;12.42;100.00;101200.31;5008463;28;20032;-64
2023/09/16 02:29:24;;;;;;;12.23;11.07;;;;;;;12.41;100.00;101195.97;5009194;28;20047;-64
2023/09/16 02:31:50;;;;;;;11.80;10.77;;;;;;;12.40;100.00;101194.19;5008074;28;20017;-65
2023/09/16 02:34:15;;;;;;;12.30;11.10;;;;;;;12.37;100.00;101189.78;5008880;28;20076;-64
2023/09/16 02:36:40;;;;;;;11.25;10.35;;;;;;;12.36;100.00;101194.09;5008721;28;20108;-64
2023/09/16 02:39:06;;;;;;;12.30;11.20;;;;;;;12.35;100.00;101187.16;5008517;28;20034;-64
2023/09/16 02:41:31;;;;;;;12.27;11.18;;;;;;;12.34;100.00;101194.91;5008225;28;20072;-65
2023/09/16 02:43:57;;;;;;;13.77;12.48;;;;;;;12.31;100.00;101189.59;5008257;28;20026;-64
2023/09/16 02:46:22;;;;;;;13.23;12.02;;;;;;;12.30;100.00;101193.03;5008233;28;20498;-64
2023/09/16 02:48:47;;;;;;;13.27;12.02;;;;;;;12.27;100.00;101187.75;5008382;28;20030;-64
2023/09/16 02:51:13;;;;;;;12.75;11.65;;;;;;;12.25;100.00;101192.88;5008555;28;20068;-65
2023/09/16 02:53:38;;;;;;;13.25;12.05;;;;;;;12.22;100.00;101197.97;5008173;28;20030;-65
2023/09/16 02:56:04;;;;;;;14.18;12.68;;;;;;;12.17;100.00;101196.97;5008428;28;20036;-64
2023/09/16 02:58:29;;;;;;;13.43;12.32;;;;;;;12.10;100.00;101190.69;5008307;28;20108;-64
2023/09/16 03:00:55;;;;;;;13.85;12.45;;;;;;;12.09;100.00;101184.59;5008249;28;20061;-64
2023/09/16 03:03:20;;;;;;;13.10;11.90;;;;;;;12.08;100.00;101188.03;5023015;28;20042;-64
2023/09/16 03:05:45;;;;;;;12.30;11.07;;;;;;;12.09;100.00;101188.88;5008886;28;20022;-64
2023/09/16 03:08:13;;;;;;;12.20;10.95;;;;;;;12.06;100.00;101183.59;5012580;28;20421;-64
2023/09/16 03:10:39;;;;;;;11.82;10.63;;;;;;;12.05;100.00;101181.84;5012110;28;20061;-64
2023/09/16 03:13:04;;;;;;;12.45;11.25;;;;;;;12.04;100.00;101177.47;5012343;28;20418;-64
2023/09/16 03:15:30;;;;;;;12.68;11.38;;;;;;;12.03;100.00;101173.13;5012552;28;20025;-64
2023/09/16 03:17:55;;;;;;;12.02;10.85;;;;;;;12.02;100.00;101172.22;5011462;28;20037;-64
2023/09/16 03:20:20;;;;;;;13.00;11.70;;;;;;;12.03;100.00;101174.00;5012303;28;20022;-64
2023/09/16 03:22:46;;;;;;;12.50;10.52;;;;;;;12.05;100.00;101174.06;5011895;28;20026;-64
2023/09/16 03:25:11;;;;;;;12.13;11.07;;;;;;;12.01;100.00;101166.19;5012075;28;20022;-64
2023/09/16 03:27:37;;;;;;;12.13;11.15;;;;;;;12.02;100.00;101169.63;5011317;28;20032;-64
2023/09/16 03:30:03;;;;;;;13.60;12.30;;;;;;;11.99;100.00;101166.94;5012178;28;20036;-64
2023/09/16 03:32:29;;;;;;;12.63;11.45;;;;;;;12.00;100.00;101173.91;5012048;28;20057;-64
2023/09/16 03:34:54;;;;;;;12.00;11.00;;;;;;;11.98;100.00;101167.78;5011754;28;20046;-64
2023/09/16 03:37:20;;;;;;;12.93;11.73;;;;;;;11.96;100.00;101165.13;5011298;28;20033;-65
2023/09/16 03:39:45;;;;;;;13.60;12.30;;;;;;;11.96;100.00;101166.84;5011929;28;20025;-64
2023/09/16 03:42:10;;;;;;;13.57;12.35;;;;;;;11.96;100.00;101167.72;5011759;28;20430;-64
2023/09/16 03:44:36;;;;;;;13.35;12.15;;;;;;;11.96;100.00;101162.53;5011304;28;20032;-64
2023/09/16 03:47:02;;;;;;;13.18;11.98;;;;;;;11.96;100.00;101161.66;5011245;28;20470;-64
2023/09/16 03:49:27;;;;;;;12.90;11.80;;;;;;;11.95;100.00;101159.88;5011644;28;20147;-64
2023/09/16 03:51:53;;;;;;;11.80;10.63;;;;;;;11.93;100.00;101154.66;5011455;28;20073;-63
2023/09/16 03:54:18;;;;;;;11.60;10.50;;;;;;;11.91;100.00;101151.13;5011018;28;20033;-64
2023/09/16 03:56:43;;;;;;;11.90;9.98;;;;;;;11.92;100.00;101155.50;5011423;28;20029;-64
2023/09/16 03:59:09;;;;;;;11.05;10.05;;;;;;;11.88;100.00;101159.72;5011630;28;20033;-64
2023/09/16 04:01:35;;;;;;;11.63;10.43;;;;;;;11.87;100.00;101155.31;5010986;28;20088;-64
2023/09/16 04:04:00;;;;;;;10.88;9.85;;;;;;;11.88;100.00;101153.63;5011097;28;20179;-64
2023/09/16 04:06:26;;;;;;;12.25;11.10;;;;;;;11.86;100.00;101155.28;5011353;28;20050;-64
2023/09/16 04:08:51;;;;;;;11.40;10.30;;;;;;;11.82;100.00;101154.31;5011250;28;20026;-64
2023/09/16 04:11:17;;;;;;;13.93;11.85;;;;;;;11.82;100.00;101156.91;5010756;28;20030;-64
2023/09/16 04:13:43;;;;;;;12.45;11.32;;;;;;;11.80;100.00;101153.38;5011346;28;20033;-64
2023/09/16 04:16:08;;;;;;;12.00;10.98;;;;;;;11.79;100.00;101148.13;5010900;28;20026;-64
2023/09/16 04:18:34;;;;;;;11.93;10.82;;;;;;;11.79;100.00;101148.13;5011255;28;20026;-64
2023/09/16 04:21:02;;;;;;;11.15;10.23;;;;;;;11.77;100.00;101154.16;5010389;28;20462;-65
2023/09/16 04:23:29;;;;;;;11.70;10.65;;;;;;;11.76;100.00;101154.97;5011153;28;20025;-64
2023/09/16 04:26:00;;;;;;;13.32;12.13;;;;;;;11.76;100.00;101157.56;5011258;28;21112;-63
2023/09/16 04:28:25;;;;;;;13.48;12.38;;;;;;;11.76;100.00;101154.13;5011107;28;20036;-64
2023/09/16 04:30:50;;;;;;;13.75;12.55;;;;;;;11.77;100.00;101155.88;5010198;28;20038;-64
2023/09/16 04:33:16;;;;;;;14.57;13.15;;;;;;;11.77;100.00;101150.69;5010609;28;20185;-63
2023/09/16 04:35:44;;;;;;;13.93;12.73;;;;;;;11.76;100.00;101149.78;5010915;28;20036;-65
2023/09/16 04:38:09;;;;;;;13.52;11.90;;;;;;;11.75;100.00;101148.03;5010484;28;20030;-64
2023/09/16 04:40:35;;;;;;;13.32;12.10;;;;;;;11.73;100.00;101154.91;5010503;28;20046;-64
2023/09/16 04:43:02;;;;;;;13.93;12.63;;;;;;;11.72;100.00;101145.34;5010066;28;20034;-65
2023/09/16 04:45:29;;;;;;;14.55;12.93;;;;;;;11.70;100.00;101143.53;5010960;28;20034;-63
2023/09/16 04:47:54;;;;;;;13.60;12.40;;;;;;;11.70;100.00;101143.53;5010388;28;20498;-64
2023/09/16 04:50:21;;;;;;;14.45;13.15;;;;;;;11.69;100.00;101145.25;5010072;28;20383;-63
2023/09/16 04:52:46;;;;;;;13.88;12.55;;;;;;;11.69;100.00;101142.66;5009845;28;20030;-64
2023/09/16 04:55:12;;;;;;;12.98;11.77;;;;;;;11.68;100.00;101146.06;5010657;28;20033;-64
2023/09/16 04:57:37;;;;;;;12.38;11.30;;;;;;;11.68;100.00;101142.59;5010471;28;20037;-64
2023/09/16 05:00:05;;;;;;;13.57;12.15;;;;;;;11.67;100.00;101144.31;5010478;28;20030;-64
2023/09/16 05:02:32;;;;;;;12.88;11.70;;;;;;;11.65;100.00;101146.00;5009203;28;20034;-64
2023/09/16 05:04:57;;;;;;;13.20;12.02;;;;;;;11.67;100.00;101149.53;5008194;28;20490;-64
2023/09/16 05:07:23;;;;;;;13.13;12.02;;;;;;;11.68;100.00;101145.19;5008300;28;20059;-64
2023/09/16 05:09:48;;;;;;;14.60;12.77;;;;;;;11.67;100.00;101152.13;5007324;28;20038;-64
2023/09/16 05:12:13;;;;;;;15.45;13.82;;;;;;;11.67;100.00;101149.53;5007119;28;20541;-64
2023/09/16 05:14:38;;;;;;;13.50;12.20;;;;;;;11.67;100.00;101149.53;5008043;28;20040;-64
2023/09/16 05:17:04;;;;;;;14.85;13.45;;;;;;;11.65;100.00;101146.88;5007121;28;20033;-64
2023/09/16 05:19:31;;;;;;;13.80;12.48;;;;;;;11.63;100.00;101143.34;5008696;28;20033;-65
2023/09/16 05:21:56;;;;;;;13.05;11.88;;;;;;;11.64;100.00;101155.47;5009775;28;20033;-64
2023/09/16 05:24:21;;;;;;;12.63;11.48;;;;;;;11.62;100.00;101153.69;5009179;28;20398;-64
2023/09/16 05:26:46;;;;;;;13.48;12.30;;;;;;;11.61;100.00;101147.59;5009490;28;20021;-64
2023/09/16 05:29:12;;;;;;;13.85;12.45;;;;;;;11.61;100.00;101154.50;5007979;28;20088;-64
2023/09/16 05:31:37;;;;;;;13.20;11.75;;;;;;;11.59;100.00;101151.84;5009280;28;20051;-64
2023/09/16 05:34:02;;;;;;;13.25;11.93;;;;;;;11.58;100.00;101144.91;5009335;28;20029;-64
2023/09/16 05:36:28;;;;;;;14.15;12.80;;;;;;;11.57;100.00;101147.44;5008757;28;20102;-64
2023/09/16 05:38:53;;;;;;;13.13;12.00;;;;;;;11.59;100.00;101153.56;5008565;28;20484;-64
2023/09/16 05:41:19;;;;;;;13.40;12.15;;;;;;;11.61;100.00;101144.13;5008803;28;20025;-64
2023/09/16 05:43:44;;;;;;;14.40;13.10;;;;;;;11.62;100.00;101140.69;5008963;28;20037;-64
2023/09/16 05:46:09;;;;;;;14.60;13.07;;;;;;;11.64;100.00;101144.19;5023790;28;20030;-64
2023/09/16 05:48:35;;;;;;;13.48;12.23;;;;;;;11.67;100.00;101144.31;5008737;28;20471;-63
2023/09/16 05:51:00;;;;;;;14.05;12.80;;;;;;;11.70;100.00;101149.59;5008588;28;20053;-64
2023/09/16 05:53:26;;;;;;;15.38;13.93;;;;;;;11.74;100.00;101148.88;5008636;28;20029;-63
2023/09/16 05:55:53;;;;;;;15.23;13.68;;;;;;;11.79;100.00;101143.81;5008712;28;20030;-64
2023/09/16 05:58:18;;;;;;;15.25;13.85;;;;;;;11.85;100.00;101151.81;5008326;28;20026;-64
2023/09/16 06:00:43;;;;;;;13.90;12.50;;;;;;;11.88;100.00;101158.81;5008466;28;20639;-64
2023/09/16 06:03:09;;;;;;;14.90;13.57;;;;;;;11.93;100.00;101152.03;5008591;28;20026;-64
2023/09/16 06:05:34;;;;;;;15.00;13.63;;;;;;;11.98;100.00;101158.25;5008093;28;20052;-64
2023/09/16 06:07:59;;;;;;;13.75;12.43;;;;;;;12.04;100.00;101169.69;5008136;28;20026;-64
2023/09/16 06:10:25;;;;;;;14.43;12.82;;;;;;;12.08;100.00;101161.16;5007799;28;20033;-64
2023/09/16 06:12:51;;;;;;;14.43;13.05;;;;;;;12.12;100.00;101163.06;5008437;28;20029;-65
2023/09/16 06:15:17;;;;;;;15.63;14.13;;;;;;;12.18;100.00;101168.44;5008247;28;20030;-65
2023/09/16 06:17:42;;;;;;;14.20;12.90;;;;;;;12.23;100.00;101164.25;5008799;28;20037;-64
2023/09/16 06:20:08;;;;;;;15.38;13.55;;;;;;;12.30;100.00;101169.66;5008072;28;20025;-65
2023/09/16 06:22:33;;;;;;;14.73;13.45;;;;;;;12.38;100.00;101167.28;5007973;28;20018;-64
2023/09/16 06:24:58;;;;;;;15.63;14.32;;;;;;;12.47;100.00;101171.03;5008244;28;20109;-64
2023/09/16 06:27:24;;;;;;;15.98;14.55;;;;;;;12.57;100.00;101176.50;5008131;28;20030;-64
2023/09/16 06:29:50;;;;;;;15.15;13.82;;;;;;;12.65;100.00;101175.00;5007432;28;20037;-64
2023/09/16 06:32:16;;;;;;;15.75;14.35;;;;;;;12.76;100.00;101170.09;5023695;28;20091;-64
2023/09/16 06:34:41;;;;;;;18.40;16.55;;;;;;;12.92;100.00;101170.53;5007988;28;20038;-64
2023/09/16 06:37:06;;;;;;;21.45;19.30;;;;;;;13.09;100.00;101171.00;5008740;28;20025;-64
2023/09/16 06:39:33;;;;;;;22.80;20.70;;;;;;;13.29;100.00;101178.44;5007741;28;20409;-65
2023/09/16 06:41:58;;;;;;;24.15;21.88;;;;;;;13.64;100.00;101185.41;5007613;28;20078;-64
2023/09/16 06:44:23;;;;;;;24.08;21.80;;;;;;;14.04;100.00;101180.28;5007602;28;20480;-65
2023/09/16 06:46:49;;;;;;;24.70;22.25;;;;;;;14.51;100.00;101186.53;5008074;28;20052;-64
2023/09/16 06:49:17;;;;;;;22.70;20.48;;;;;;;15.05;100.00;101180.66;5008227;28;20371;-65
2023/09/16 06:51:42;;;;;;;22.40;20.42;;;;;;;15.53;100.00;101186.72;5007537;28;20029;-65
2023/09/16 06:54:07;;;;;;;20.08;18.25;;;;;;;15.91;100.00;101184.69;5007856;28;20025;-65
2023/09/16 06:56:33;;;;;;;17.05;15.45;;;;;;;16.19;100.00;101180.78;5008468;28;20030;-65
2023/09/16 06:58:59;;;;;;;15.82;14.40;;;;;;;16.49;100.00;101182.94;5007367;28;20462;-65
2023/09/16 07:01:24;;;;;;;16.17;14.73;;;;;;;16.73;100.00;101177.09;5007746;28;20046;-65
2023/09/16 07:03:49;;;;;;;15.52;13.93;;;;;;;16.77;100.00;101181.53;5007618;28;20026;-64
2023/09/16 07:06:15;;;;;;;14.77;13.48;;;;;;;16.90;100.00;101179.03;5007794;28;20088;-65
2023/09/16 07:08:40;;;;;;;16.17;13.80;;;;;;;16.80;100.00;101176.31;5007738;28;20080;-65
2023/09/16 07:11:05;;;;;;;15.38;13.88;;;;;;;16.62;100.00;101181.34;5007500;28;20022;-65
2023/09/16 07:13:30;;;;;;;14.77;13.27;;;;;;;16.46;100.00;101181.13;5007607;28;20017;-65
2023/09/16 07:15:56;;;;;;;15.20;13.60;;;;;;;16.35;100.00;101178.41;5007584;28;20104;-65
2023/09/16 07:18:22;;;;;;;16.60;14.95;;;;;;;16.26;100.00;101178.28;5007773;28;20096;-65
2023/09/16 07:20:48;;;;;;;15.55;14.15;;;;;;;16.32;100.00;101173.13;5007345;28;20109;-65
2023/09/16 07:23:14;;;;;;;15.30;13.90;;;;;;;16.47;100.00;101172.44;5007663;28;20046;-65
2023/09/16 07:25:39;;;;;;;16.35;14.63;;;;;;;16.74;100.00;101176.25;5007641;28;20517;-64
2023/09/16 07:28:05;;;;;;;16.25;14.73;;;;;;;17.05;100.00;101173.13;5007507;28;20477;-65
2023/09/16 07:30:30;;;;;;;15.25;13.65;;;;;;;17.59;100.00;101183.22;5007497;28;20128;-65
2023/09/16 07:32:56;;;;;;;13.85;12.55;;;;;;;18.19;100.00;101179.28;5007609;28;20030;-65
2023/09/16 07:35:21;;;;;;;13.25;12.05;;;;;;;18.49;100.00;101182.06;5007014;28;20427;-65
2023/09/16 07:37:47;;;;;;;14.02;12.77;;;;;;;18.79;100.00;101177.81;5007387;28;20029;-65
2023/09/16 07:40:12;;;;;;;14.63;13.20;;;;;;;19.19;100.00;101191.94;5007336;28;20022;-65
2023/09/16 07:42:38;;;;;;;12.95;11.82;;;;;;;19.44;100.00;101192.84;5007502;28;20048;-66
2023/09/16 07:45:04;;;;;;;13.88;12.30;;;;;;;19.61;100.00;101191.94;5006998;28;20438;-65
2023/09/16 07:47:29;;;;;;;13.27;12.00;;;;;;;19.73;100.00;101179.69;5007700;28;20127;-65
2023/09/16 07:49:54;;;;;;;13.48;12.18;;;;;;;19.65;100.00;101192.81;5007125;28;20525;-64
2023/09/16 07:52:19;;;;;;;16.23;12.43;;;;;;;19.63;100.00;101191.94;5009302;28;20038;-65
2023/09/16 07:54:45;;;;;;;14.25;12.02;;;;;;;19.80;100.00;101191.94;5010475;28;20030;-65
2023/09/16 07:57:12;;;;;;;12.82;11.43;;;;;;;20.15;100.00;101190.16;5010663;28;20022;-65
2023/09/16 07:59:37;;;;;;;12.18;11.07;;;;;;;20.29;100.00;101195.41;5010720;28;20500;-65
2023/09/16 08:02:02;;;;;;;13.02;11.80;;;;;;;20.63;100.00;101194.41;5010886;28;20022;-65
2023/09/16 08:04:28;;;;;;;12.07;10.90;;;;;;;20.75;100.00;101206.63;5010793;28;20073;-65
2023/09/16 08:06:53;;;;;;;11.50;10.43;;;;;;;21.04;100.00;101195.09;5010185;28;20053;-65
2023/09/16 08:09:18;;;;;;;12.00;10.75;;;;;;;21.29;100.00;101202.81;5010649;28;20046;-65
2023/09/16 08:11:44;;;;;;;13.88;11.02;;;;;;;21.57;100.00;101202.59;5010620;28;20332;-65
2023/09/16 08:14:09;;;;;;;13.85;11.43;;;;;;;21.77;99.63;101201.53;5009454;28;20022;-65
2023/09/16 08:16:34;;;;;;;12.13;10.73;;;;;;;21.93;100.00;101206.69;5010568;28;20382;-65
2023/09/16 08:18:59;;;;;;;11.82;10.75;;;;;;;22.21;98.37;101206.44;5010468;28;20071;-66
2023/09/16 08:21:25;;;;;;;11.90;10.77;;;;;;;22.17;100.00;101205.59;5010256;28;20347;-65
2023/09/16 08:23:50;;;;;;;11.50;10.52;;;;;;;22.36;98.12;101212.41;5010309;28;20033;-66
2023/09/16 08:26:15;;;;;;;12.13;10.93;;;;;;;22.16;97.84;101214.38;5009955;28;20038;-65
2023/09/16 08:28:41;;;;;;;12.20;10.70;;;;;;;22.15;97.10;101211.75;5010098;28;20576;-65
2023/09/16 08:31:06;;;;;;;11.80;10.80;;;;;;;22.24;98.00;101219.56;5025816;28;20029;-65
2023/09/16 08:33:31;;;;;;;11.55;10.35;;;;;;;22.27;94.42;101216.91;5009850;28;20032;-65
2023/09/16 08:35:56;;;;;;;12.50;11.20;;;;;;;22.27;95.11;101222.19;5010273;28;20022;-66
2023/09/16 08:38:22;;;;;;;12.90;11.20;;;;;;;22.46;94.42;101224.63;5010109;28;20080;-64
2023/09/16 08:40:55;;;;;;;12.30;11.02;;;;;;;22.56;95.02;101228.00;5010196;28;20481;-66
2023/09/16 08:43:39;;;;;;;13.00;10.93;;;;;;;22.76;93.75;101234.84;5010152;28;20355;-65
2023/09/16 08:46:09;;;;;;;11.25;10.07;;;;;;;22.74;91.16;101232.22;5009961;28;20042;-66
2023/09/16 08:48:39;;;;;;;11.18;10.07;;;;;;;22.84;92.75;101229.47;5010193;28;20024;-65
2023/09/16 08:51:05;;;;;;;12.10;10.93;;;;;;;22.79;94.30;101232.19;5009594;28;20033;-66
2023/09/16 08:53:35;;;;;;;11.55;10.55;;;;;;;22.75;92.22;101230.47;5009839;28;20669;-66
2023/09/16 08:56:02;;;;;;;14.43;10.80;;;;;;;22.71;92.82;101239.31;5009847;28;20038;-66
2023/09/16 08:58:27;;;;;;;10.38;9.32;;;;;;;22.56;90.35;101235.91;5009144;28;20038;-65
2023/09/16 09:00:53;;;;;;;11.30;10.32;;;;;;;22.67;91.48;101239.34;5010175;28;20068;-66
2023/09/16 09:03:18;;;;;;;11.60;10.43;;;;;;;22.81;91.39;101233.00;5008793;28;20065;-66
2023/09/16 09:05:44;;;;;;;11.43;10.32;;;;;;;22.79;92.05;101235.66;5009300;28;20470;-66
2023/09/16 09:08:11;;;;;;;12.27;9.23;;;;;;;22.73;93.43;101241.03;5024695;28;20057;-66
2023/09/16 09:10:37;;;;;;;11.23;10.10;;;;;;;22.62;89.25;101227.97;5009405;28;20072;-66
2023/09/16 09:13:06;;;;;;;10.48;9.57;;;;;;;22.77;90.66;101232.16;5009335;28;20032;-66
2023/09/16 09:15:32;;;;;;;11.07;10.07;;;;;;;22.83;90.55;101238.28;5009495;28;20118;-66
2023/09/16 09:17:58;;;;;;;9.75;8.85;;;;;;;22.86;91.42;101235.59;5009380;28;20401;-66
2023/09/16 09:20:28;;;;;;;10.70;9.57;;;;;;;22.99;91.15;101239.81;5008520;28;20025;-66
2023/09/16 09:22:55;;;;;;;10.77;9.73;;;;;;;23.10;92.89;101241.41;5009432;28;20044;-66
2023/09/16 09:25:28;;;;;;;10.35;9.30;;;;;;;23.15;92.13;101245.75;5009053;28;20025;-65
2023/09/16 09:27:55;;;;;;;10.35;9.35;;;;;;;23.26;92.16;101250.88;5009088;28;20156;-66
2023/09/16 09:30:26;;;;;;;10.20;9.32;;;;;;;23.37;95.27;101244.56;5008594;28;20561;-66
2023/09/16 09:32:55;;;;;;;10.25;9.00;;;;;;;23.47;93.68;101247.97;5008850;28;20018;-66
2023/09/16 09:35:29;;;;;;;9.98;8.98;;;;;;;23.46;93.56;101249.72;5008952;28;20437;-65
2023/09/16 09:37:55;;;;;;;10.35;9.18;;;;;;;23.45;91.81;101245.34;5008942;28;20439;-65
2023/09/16 09:40:21;;;;;;;9.40;8.50;;;;;;;23.49;91.45;101246.19;5008316;28;20073;-66
2023/09/16 09:42:51;;;;;;;9.25;8.25;;;;;;;23.55;94.31;101258.44;5008763;28;20154;-66
2023/09/16 09:45:19;;;;;;;7.25;6.63;;;;;;;23.59;91.76;101261.00;5009167;28;20490;-66
2023/09/16 09:47:47;;;;;;;10.40;9.45;;;;;;;23.54;88.95;101261.97;5009238;28;20053;-66
2023/09/16 09:50:15;;;;;;;9.98;9.07;;;;;;;23.50;90.33;101255.84;5008467;28;20249;-66
2023/09/16 09:52:51;;;;;;;8.95;8.05;;;;;;;23.42;88.98;101266.56;5008559;28;20029;-66
2023/09/16 09:55:18;;;;;;;9.23;8.40;;;;;;;23.31;87.96;101260.53;5008735;28;20273;-66
2023/09/16 09:57:47;;;;;;;9.93;9.02;;;;;;;23.18;92.69;101260.69;5008383;28;20108;-66
2023/09/16 10:00:15;;;;;;;11.20;10.10;;;;;;;23.08;92.28;101259.09;5008325;28;20152;-66
2023/09/16 10:02:41;;;;;;;10.27;9.30;;;;;;;23.03;93.86;101254.72;5008745;28;20060;-66
2023/09/16 10:05:06;;;;;;;9.77;8.77;;;;;;;23.12;98.07;101255.50;5008734;28;20030;-66
2023/09/16 10:07:32;;;;;;;10.25;9.25;;;;;;;23.19;93.21;101257.16;5008131;28;20042;-66
2023/09/16 10:09:57;;;;;;;9.52;8.63;;;;;;;23.26;95.55;101244.75;5007867;28;20030;-66
2023/09/16 10:12:23;;;;;;;9.77;8.88;;;;;;;23.34;95.68;101247.25;5008309;28;20029;-65
2023/09/16 10:14:49;;;;;;;9.95;9.07;;;;;;;23.40;90.06;101247.16;5008031;28;20028;-66
2023/09/16 10:17:15;;;;;;;10.15;9.20;;;;;;;23.37;88.45;101241.91;5008828;28;20030;-66
2023/09/16 10:19:42;;;;;;;9.65;8.75;;;;;;;23.41;91.76;101245.38;5008513;28;20025;-66
2023/09/16 10:22:07;;;;;;;9.00;8.20;;;;;;;23.44;91.79;101242.75;5008288;28;20022;-66
2023/09/16 10:24:34;;;;;;;10.10;9.10;;;;;;;23.53;92.11;101241.72;5007684;28;20036;-66
2023/09/16 10:27:05;;;;;;;8.57;7.72;;;;;;;23.65;92.57;101241.53;5008342;28;20021;-66
2023/09/16 10:29:31;;;;;;;10.30;9.38;;;;;;;23.74;90.49;101240.47;5007859;28;20037;-66
2023/09/16 10:31:58;;;;;;;10.07;9.18;;;;;;;23.75;87.11;101236.94;5008268;28;20025;-66
2023/09/16 10:34:23;;;;;;;9.40;8.48;;;;;;;23.81;89.91;101235.94;5007914;28;20072;-66
2023/09/16 10:36:48;;;;;;;11.15;10.05;;;;;;;23.81;87.62;101239.47;5008477;28;20097;-66
2023/09/16 10:39:15;;;;;;;10.93;9.93;;;;;;;23.77;86.09;101234.25;5007689;28;20017;-66
2023/09/16 10:41:44;;;;;;;10.57;9.48;;;;;;;23.83;90.74;101228.88;5008221;28;20397;-66
2023/09/16 10:44:12;;;;;;;10.82;8.63;;;;;;;23.86;88.31;101239.38;5008395;28;20359;-66
2023/09/16 10:46:37;;;;;;;9.50;8.57;;;;;;;23.77;89.28;101229.84;5007443;28;20030;-66
2023/09/16 10:49:03;;;;;;;8.57;7.70;;;;;;;23.86;92.21;101231.44;5008086;28;20439;-66
2023/09/16 10:51:33;;;;;;;10.50;9.50;;;;;;;23.89;89.26;101228.75;5007677;28;20041;-67
2023/09/16 10:54:09;;;;;;;10.05;9.05;;;;;;;24.01;90.11;101218.84;5007959;28;20034;-66
2023/09/16 10:56:41;;;;;;;11.07;9.48;;;;;;;24.05;89.29;101217.91;5008137;28;20053;-67
2023/09/16 10:59:10;;;;;;;10.95;9.95;;;;;;;24.06;89.35;101224.94;5007854;28;20073;-66